Time;durP1;ratioP1;P1;durP2;ratioP2;P2;SDS_P1;SDS_P2;PMS_P1;PMS_P2;Temp;Humidity;BMP_temperature;BMP_pressure;BME280_temperature;BME280_humidity;BME280_pressure;Samples;Min_cycle;Max_cycle;Signal;HPM_P1;HPM_P2
2021/06/07 05:11:09;;;;;;;10.98;7.80;;;;;;;18.92;63.00;99319.59;5196664;24;20065;-81
2021/06/07 05:13:35;;;;;;;16.77;7.43;;;;;;;19.02;62.11;99321.75;4698535;30;20045;-87
2021/06/07 05:16:01;;;;;;;13.30;6.40;;;;;;;19.16;60.91;99318.41;4683511;30;20408;-80
2021/06/07 05:18:27;;;;;;;13.03;6.03;;;;;;;19.18;62.36;99324.41;4684056;30;20044;-82
2021/06/07 05:20:53;;;;;;;12.50;7.33;;;;;;;19.33;62.93;99325.41;4698089;30;20041;-80
2021/06/07 05:23:19;;;;;;;20.40;7.77;;;;;;;19.34;60.74;99324.28;4699531;30;20075;-79
2021/06/07 05:25:45;;;;;;;25.02;8.90;;;;;;;19.39;60.71;99326.72;4699037;30;20048;-80
2021/06/07 05:28:12;;;;;;;10.77;5.70;;;;;;;19.23;61.12;99312.19;4698968;30;20069;-79
2021/06/07 05:30:39;;;;;;;13.75;7.30;;;;;;;19.43;61.31;99324.00;4697911;30;20909;-79
2021/06/07 05:33:06;;;;;;;16.80;7.25;;;;;;;19.56;61.04;99328.16;4699419;30;20065;-80
2021/06/07 05:35:33;;;;;;;14.45;5.35;;;;;;;19.60;60.10;99323.47;4699140;30;20049;-79
2021/06/07 05:38:00;;;;;;;12.00;4.45;;;;;;;19.67;59.77;99320.06;4699661;30;20042;-91
2021/06/07 05:40:27;;;;;;;23.20;5.50;;;;;;;19.73;60.44;99310.22;4699533;30;20120;-92
2021/06/07 05:42:53;;;;;;;23.42;9.30;;;;;;;19.76;60.19;99320.56;4663453;30;20049;-87
2021/06/07 05:48:34;;;;;;;17.55;7.28;;;;;;;19.72;60.07;99325.25;4697495;30;20061;-83
2021/06/07 05:51:00;;;;;;;19.27;6.68;;;;;;;19.89;61.49;99313.59;4684346;30;20050;-82
2021/06/07 05:53:26;;;;;;;13.43;4.30;;;;;;;19.86;60.21;99311.59;4698749;30;20113;-86
2021/06/07 06:07:32;;;;;;;18.95;4.68;;;;;;;20.02;59.46;99291.19;4696572;30;20058;-84
2021/06/07 06:09:58;;;;;;;18.17;5.50;;;;;;;20.27;59.75;99311.72;4680960;30;20145;-85
2021/06/07 06:12:24;;;;;;;26.50;5.10;;;;;;;20.28;59.19;99324.41;4697225;30;20048;-80
2021/06/07 06:14:50;;;;;;;23.60;4.30;;;;;;;20.24;59.57;99329.13;4682734;30;20427;-85
2021/06/07 06:17:17;;;;;;;;;;;;;;;20.33;59.50;99318.53;4696535;30;20120;-78
2021/06/07 06:19:42;;;;;;;21.10;6.70;;;;;;;20.47;59.59;99322.66;4698772;30;20358;-89
2021/06/07 06:22:08;;;;;;;12.50;5.67;;;;;;;20.70;59.87;99322.56;4697616;30;20145;-86
2021/06/07 06:24:36;;;;;;;20.95;5.75;;;;;;;20.86;58.11;99307.25;4696628;30;20060;-88
2021/06/07 06:27:02;;;;;;;22.60;9.10;;;;;;;21.19;57.35;99315.84;4695835;30;20148;-85
2021/06/07 06:29:28;;;;;;;25.83;6.07;;;;;;;21.39;57.19;99313.66;4695371;30;20148;-85
2021/06/07 06:31:54;;;;;;;22.20;6.47;;;;;;;21.46;57.08;99310.94;4695518;30;20115;-84
2021/06/07 06:34:20;;;;;;;16.03;5.03;;;;;;;21.42;56.05;99298.97;4695557;30;20049;-85
2021/06/07 06:36:46;;;;;;;23.33;5.15;;;;;;;21.44;56.35;99311.31;4695151;30;20049;-85
2021/06/07 06:39:13;;;;;;;18.73;4.55;;;;;;;21.41;55.85;99300.97;4681121;30;20049;-91
2021/06/07 06:41:42;;;;;;;24.35;5.13;;;;;;;21.42;55.84;99321.22;4669557;30;20053;-80
2021/06/07 06:44:08;;;;;;;14.50;4.83;;;;;;;21.28;56.10;99316.31;4683453;30;20051;-85
2021/06/07 06:46:34;;;;;;;32.10;4.60;;;;;;;21.26;56.27;99310.38;4669863;30;20049;-89
2021/06/07 06:49:02;;;;;;;15.07;5.20;;;;;;;21.39;55.39;99319.22;4682792;30;20084;-82
2021/06/07 06:51:30;;;;;;;15.80;4.78;;;;;;;21.40;57.09;99318.84;5208756;24;20069;-88
2021/06/07 06:53:58;;;;;;;19.38;5.65;;;;;;;21.26;55.90;99311.16;4696882;30;20061;-79
2021/06/07 06:56:24;;;;;;;42.80;6.00;;;;;;;21.29;55.53;99310.41;5100488;24;20076;-85
2021/06/07 06:58:51;;;;;;;15.15;5.50;;;;;;;21.01;54.83;99321.25;4697280;30;20300;-74
2021/06/07 07:01:17;;;;;;;18.33;5.70;;;;;;;20.61;56.72;99322.84;4711225;30;20482;-91
2021/06/07 07:03:46;;;;;;;10.98;5.28;;;;;;;20.54;56.89;99320.00;4700227;30;20045;-76
2021/06/07 07:06:13;;;;;;;17.60;3.70;;;;;;;20.71;56.96;99321.38;4697881;30;20053;-88
2021/06/07 07:08:40;;;;;;;12.85;3.80;;;;;;;20.87;56.21;99324.72;4698140;30;20041;-75
2021/06/07 07:11:06;;;;;;;16.47;4.13;;;;;;;20.86;55.91;99325.88;4697653;30;20069;-74
2021/06/07 07:13:32;;;;;;;8.52;3.38;;;;;;;20.77;55.73;99303.97;4696070;30;20050;-75
2021/06/07 07:15:58;;;;;;;8.53;3.43;;;;;;;20.84;56.13;99312.38;4696442;30;20053;-75
2021/06/07 07:18:24;;;;;;;11.02;3.67;;;;;;;20.98;56.46;99314.47;4695818;30;20590;-75
2021/06/07 07:20:50;;;;;;;6.27;2.77;;;;;;;20.75;55.25;99323.00;4681313;30;20057;-85
2021/06/07 07:23:16;;;;;;;13.90;3.85;;;;;;;20.71;56.83;99304.69;4696530;30;20296;-73
2021/06/07 07:25:43;;;;;;;13.93;3.30;;;;;;;20.93;55.80;99331.53;4696972;30;20048;-77
2021/06/07 07:28:10;;;;;;;13.25;3.20;;;;;;;20.83;55.52;99327.44;4708580;30;20316;-84
2021/06/07 07:30:38;;;;;;;6.40;2.85;;;;;;;20.71;55.05;99319.38;4696993;30;20057;-76
2021/06/07 07:33:04;;;;;;;34.17;4.60;;;;;;;20.83;55.75;99327.44;4696617;30;20574;-89
2021/06/07 07:35:30;;;;;;;19.88;3.25;;;;;;;21.08;55.46;99330.44;4696446;30;20103;-79
2021/06/07 07:37:58;;;;;;;29.00;3.92;;;;;;;21.04;55.30;99326.84;4695891;30;20045;-76
2021/06/07 07:40:24;;;;;;;18.20;3.07;;;;;;;20.86;55.33;99323.09;4695569;30;20080;-79
2021/06/07 07:42:51;;;;;;;8.55;3.28;;;;;;;21.05;55.69;99328.44;4694479;30;20049;-88
2021/06/07 07:45:19;;;;;;;18.60;3.60;;;;;;;21.10;54.66;99327.31;4699562;30;20132;-86
2021/06/07 07:47:45;;;;;;;18.00;3.22;;;;;;;20.91;55.10;99327.50;4712571;30;20053;-88
2021/06/07 07:50:14;;;;;;;43.03;5.00;;;;;;;21.13;55.88;99337.66;4699240;30;20050;-74
2021/06/07 07:52:43;;;;;;;9.13;3.50;;;;;;;21.13;54.47;99322.97;4701261;30;20042;-76
2021/06/07 07:55:10;;;;;;;11.25;3.85;;;;;;;21.32;54.64;99319.94;4700024;30;20071;-75
2021/06/07 07:57:37;;;;;;;21.77;4.28;;;;;;;21.56;55.32;99326.91;4698278;30;20481;-74
2021/06/07 08:00:08;;;;;;;29.05;4.90;;;;;;;21.58;54.41;99313.41;4698824;30;20611;-74
2021/06/07 08:02:41;;;;;;;26.48;4.40;;;;;;;21.45;54.82;99314.91;4711912;30;20053;-75
2021/06/07 08:05:09;;;;;;;37.00;6.25;;;;;;;21.37;55.04;99325.19;4699104;30;20428;-73
2021/06/07 08:07:36;;;;;;;14.95;4.95;;;;;;;21.27;55.47;99317.53;4697351;30;20132;-73
2021/06/07 08:10:02;;;;;;;26.02;5.60;;;;;;;21.38;55.75;99318.41;4697691;30;20477;-74
2021/06/07 08:12:29;;;;;;;32.08;5.18;;;;;;;21.49;54.86;99310.16;4698891;30;20076;-72
2021/06/07 08:14:55;;;;;;;14.20;3.85;;;;;;;21.78;52.97;99317.50;4697825;30;20053;-73
2021/06/07 08:17:22;;;;;;;29.30;5.40;;;;;;;22.00;54.07;99317.63;4695865;30;20136;-83
2021/06/07 08:19:48;;;;;;;24.48;5.28;;;;;;;22.03;54.04;99317.66;4696482;30;20080;-81
2021/06/07 08:22:14;;;;;;;23.77;4.82;;;;;;;22.20;52.32;99307.81;4696932;30;20072;-74
2021/06/07 08:24:40;;;;;;;21.43;4.13;;;;;;;22.21;51.75;99311.38;4696329;30;20571;-83
2021/06/07 08:27:06;;;;;;;16.63;4.47;;;;;;;22.24;52.04;99291.91;4697492;30;20311;-74
2021/06/07 08:29:32;;;;;;;21.63;5.03;;;;;;;22.56;52.78;99296.78;4697641;30;20050;-83
2021/06/07 08:31:59;;;;;;;15.18;4.63;;;;;;;22.52;51.06;99290.41;4696907;30;20065;-81
2021/06/07 08:34:25;;;;;;;43.35;6.40;;;;;;;22.40;51.88;99296.34;4698236;30;20041;-75
2021/06/07 08:36:51;;;;;;;21.92;5.05;;;;;;;22.50;52.70;99298.38;4696942;30;20060;-75
2021/06/07 08:39:19;;;;;;;19.05;5.13;;;;;;;22.59;52.06;99281.28;4699698;30;20429;-74
2021/06/07 08:41:44;;;;;;;;;;;;;;;22.82;52.21;99287.28;4706564;30;20496;-76
2021/06/07 08:44:10;;;;;;;44.90;5.97;;;;;;;22.79;52.03;99301.22;4698226;30;19958;-75
2021/06/07 08:46:36;;;;;;;38.73;5.10;;;;;;;22.70;50.82;99298.81;4701104;30;20053;-74
2021/06/07 08:49:03;;;;;;;11.48;4.78;;;;;;;22.49;50.76;99300.34;4717581;30;20319;-74
2021/06/07 08:51:29;;;;;;;28.98;5.82;;;;;;;22.28;51.78;99291.91;4703714;30;20516;-77
2021/06/07 08:53:55;;;;;;;11.93;4.68;;;;;;;22.05;51.98;99297.75;4699766;30;20050;-76
2021/06/07 08:56:21;;;;;;;25.57;5.67;;;;;;;22.11;52.71;99296.19;4708996;30;20506;-76
2021/06/07 08:58:49;;;;;;;14.90;5.65;;;;;;;22.06;52.44;99296.59;4717247;30;20063;-74
2021/06/07 09:01:16;;;;;;;15.73;6.15;;;;;;;22.11;52.81;99284.25;4712737;30;20050;-76
2021/06/07 09:03:42;;;;;;;14.57;5.43;;;;;;;22.16;52.85;99286.72;4699507;30;20171;-80
2021/06/07 09:06:08;;;;;;;10.75;5.55;;;;;;;22.28;52.46;99272.41;4703714;30;20057;-83
2021/06/07 09:08:39;;;;;;;8.85;4.50;;;;;;;22.32;52.08;99281.59;4700001;30;20060;-79
2021/06/07 09:11:16;;;;;;;11.18;4.55;;;;;;;22.25;52.19;99278.78;4699495;30;20555;-79
2021/06/07 09:13:42;;;;;;;17.02;4.50;;;;;;;22.24;51.30;99286.34;4698167;30;20132;-78
2021/06/07 09:16:10;;;;;;;20.38;4.75;;;;;;;22.26;51.75;99274.81;4701750;30;20080;-79
2021/06/07 09:18:43;;;;;;;30.73;5.15;;;;;;;22.21;51.53;99272.41;4699481;30;20089;-80
2021/06/07 09:21:16;;;;;;;25.23;8.05;;;;;;;22.28;51.88;99273.25;4699067;30;20539;-81
2021/06/07 09:24:17;;;;;;;24.67;8.27;;;;;;;22.60;51.15;99258.56;4697965;30;20041;-77
2021/06/07 09:26:45;;;;;;;13.55;3.78;;;;;;;22.80;49.63;99269.34;4669888;30;20049;-79
2021/06/07 09:29:24;;;;;;;56.55;6.22;;;;;;;22.86;49.86;99256.63;4699306;30;20144;-79
2021/06/07 09:31:53;;;;;;;28.75;5.38;;;;;;;22.79;50.51;99256.63;4711088;30;20049;-79
2021/06/07 09:34:31;;;;;;;23.33;4.47;;;;;;;22.92;49.92;99247.47;4698062;30;20053;-79
2021/06/07 09:37:05;;;;;;;35.75;5.30;;;;;;;22.94;50.17;99249.88;4681628;30;20049;-79
2021/06/07 09:39:32;;;;;;;20.10;4.47;;;;;;;23.10;48.93;99250.28;4699527;30;20057;-85
2021/06/07 09:42:08;;;;;;;24.02;4.47;;;;;;;23.00;49.61;99256.66;4699560;30;20504;-79
2021/06/07 09:44:46;;;;;;;40.92;5.63;;;;;;;23.21;49.96;99251.09;4699507;30;20049;-83
2021/06/07 09:47:30;;;;;;;19.60;4.43;;;;;;;23.54;47.87;99246.25;4689570;30;20188;-80
2021/06/07 09:50:03;;;;;;;13.00;4.30;;;;;;;23.67;48.20;99243.81;4698737;30;20049;-78
2021/06/07 09:52:30;;;;;;;36.58;5.30;;;;;;;23.71;48.05;99241.84;4698201;30;20575;-76
2021/06/07 09:55:13;;;;;;;22.75;4.63;;;;;;;23.65;47.46;99238.63;4698278;30;20053;-76
2021/06/07 09:57:46;;;;;;;6.72;3.80;;;;;;;23.19;47.74;99230.38;4696620;30;20061;-78
2021/06/07 10:00:34;;;;;;;10.23;4.25;;;;;;;23.21;49.26;99236.31;4700262;30;20144;-77
2021/06/07 10:03:39;;;;;;;94.53;8.20;;;;;;;23.15;48.32;99230.38;4710738;30;20056;-77
2021/06/07 10:06:34;;;;;;;12.52;3.58;;;;;;;23.38;46.98;99209.63;4649363;30;20050;-77
2021/06/07 10:09:11;;;;;;;12.00;3.80;;;;;;;23.82;47.68;99219.47;4662809;30;20058;-78
2021/06/07 10:11:45;;;;;;;9.00;3.50;;;;;;;23.92;45.83;99213.03;4649780;30;20095;-75
2021/06/07 10:14:22;;;;;;;29.50;4.15;;;;;;;23.80;46.97;99202.31;4663198;30;20120;-82
2021/06/07 10:16:53;;;;;;;26.17;4.18;;;;;;;23.62;46.85;99214.31;4695120;30;20076;-76
2021/06/07 10:19:30;;;;;;;18.30;4.35;;;;;;;23.32;47.53;99200.84;4700022;30;20077;-80
2021/06/07 10:21:58;;;;;;;25.65;4.85;;;;;;;23.27;47.94;99192.09;4699630;30;20497;-85
2021/06/07 10:24:24;;;;;;;9.48;3.65;;;;;;;23.34;46.75;99215.19;4699789;30;20049;-78
2021/06/07 10:26:51;;;;;;;27.35;4.80;;;;;;;23.30;47.29;99213.59;4699210;30;20104;-77
2021/06/07 10:29:17;;;;;;;47.53;6.85;;;;;;;23.25;47.74;99214.03;4699725;30;20056;-78
2021/06/07 10:31:44;;;;;;;9.48;3.22;;;;;;;23.29;46.82;99206.44;4697964;30;20135;-79
2021/06/07 10:34:10;;;;;;;9.65;3.83;;;;;;;23.17;46.74;99196.50;4699561;30;20077;-78
2021/06/07 10:36:43;;;;;;;17.73;3.78;;;;;;;23.30;46.43;99205.25;4698823;30;20681;-80
2021/06/07 10:39:09;;;;;;;20.80;6.70;;;;;;;23.36;46.65;99212.00;4698667;30;20092;-79
2021/06/07 10:41:35;;;;;;;10.97;3.77;;;;;;;23.33;47.52;99216.38;4715680;30;20205;-78
2021/06/07 10:44:02;;;;;;;19.92;3.85;;;;;;;23.35;46.93;99216.00;4711815;30;20307;-78
2021/06/07 10:46:33;;;;;;;40.40;5.43;;;;;;;23.40;47.78;99229.53;4699036;30;20061;-81
2021/06/07 10:49:03;;;;;;;27.17;4.93;;;;;;;23.49;47.69;99227.13;4698879;30;20063;-79
2021/06/07 10:51:31;;;;;;;15.70;3.55;;;;;;;23.56;47.62;99223.50;4703362;30;20053;-79
2021/06/07 10:54:28;;;;;;;11.20;3.38;;;;;;;23.58;47.84;99221.91;4714399;30;20041;-78
2021/06/07 10:56:54;;;;;;;22.05;4.72;;;;;;;23.61;47.98;99221.13;4707810;30;20061;-80
2021/06/07 10:59:20;;;;;;;7.63;3.80;;;;;;;23.50;48.71;99202.81;4697904;30;20515;-78
2021/06/07 11:01:59;;;;;;;10.82;4.00;;;;;;;23.49;49.19;99206.78;4701546;30;20044;-78
2021/06/07 11:04:36;;;;;;;8.05;4.30;;;;;;;23.35;49.97;99216.78;4710523;30;20057;-79
2021/06/07 11:07:22;;;;;;;4.82;3.45;;;;;;;23.30;49.68;99221.97;4716460;30;20049;-80
2021/06/07 11:10:08;;;;;;;7.53;4.18;;;;;;;23.28;50.70;99227.16;4697030;30;20057;-78
2021/06/07 11:12:34;;;;;;;5.53;3.72;;;;;;;23.25;51.24;99216.81;4681904;30;20054;-82
2021/06/07 11:15:14;;;;;;;18.40;4.03;;;;;;;23.13;51.63;99213.22;4680666;30;20045;-78
2021/06/07 11:17:44;;;;;;;11.55;5.50;;;;;;;23.12;53.29;99219.22;4681702;30;20100;-80
2021/06/07 11:20:11;;;;;;;6.70;4.47;;;;;;;23.00;55.04;99216.84;4697627;30;20045;-79
2021/06/07 11:23:02;;;;;;;7.30;5.45;;;;;;;22.84;55.96;99222.78;4697487;30;20127;-80
2021/06/07 11:25:28;;;;;;;11.18;7.32;;;;;;;22.81;56.30;99220.78;4698952;30;20049;-80
2021/06/07 11:27:54;;;;;;;15.05;5.60;;;;;;;22.85;56.55;99207.66;4698473;30;20091;-79
2021/06/07 11:30:21;;;;;;;7.25;4.90;;;;;;;23.10;55.65;99196.50;4697209;30;20072;-81
2021/06/07 11:32:50;;;;;;;12.43;6.38;;;;;;;23.33;54.34;99201.66;4698838;30;20042;-80
2021/06/07 11:35:44;;;;;;;29.05;10.20;;;;;;;23.49;54.82;99204.78;4696843;30;20420;-82
2021/06/07 11:38:27;;;;;;;9.40;4.35;;;;;;;23.66;53.81;99209.53;4704383;30;20084;-81
2021/06/07 11:40:53;;;;;;;8.23;3.40;;;;;;;23.80;51.19;99203.13;4697919;30;20144;-80
2021/06/07 11:43:44;;;;;;;6.47;3.60;;;;;;;23.84;51.66;99212.28;4697449;30;20053;-75
2021/06/07 11:46:11;;;;;;;5.90;3.95;;;;;;;23.76;52.52;99193.19;4697024;30;20300;-74
2021/06/07 11:49:05;;;;;;;23.48;4.65;;;;;;;23.88;49.87;99215.06;4697200;30;20160;-82
2021/06/07 11:51:34;;;;;;;32.20;5.70;;;;;;;23.98;50.29;99216.22;4711768;30;20053;-79
2021/06/07 11:54:00;;;;;;;18.13;5.20;;;;;;;24.03;51.03;99211.00;4700652;30;20056;-78
2021/06/07 11:56:26;;;;;;;53.13;6.20;;;;;;;24.36;50.83;99215.19;4699335;30;20065;-78
2021/06/07 11:58:53;;;;;;;13.50;3.90;;;;;;;24.72;48.76;99203.00;4697472;30;20451;-80
2021/06/07 12:01:19;;;;;;;31.88;5.32;;;;;;;25.21;47.86;99207.41;4697062;30;20064;-79
2021/06/07 12:03:45;;;;;;;7.30;3.38;;;;;;;25.55;46.12;99204.63;4699317;30;20045;-80
2021/06/07 12:06:11;;;;;;;11.68;3.47;;;;;;;25.60;45.67;99203.41;4709836;30;20432;-78
2021/06/07 12:08:38;;;;;;;6.28;3.25;;;;;;;25.75;44.86;99199.19;4710354;30;20054;-78
2021/06/07 12:11:05;;;;;;;8.02;3.83;;;;;;;25.69;44.77;99205.66;4707251;30;20041;-78
2021/06/07 12:13:31;;;;;;;4.20;3.30;;;;;;;25.56;44.68;99202.63;4700322;30;20145;-77
2021/06/07 12:16:12;;;;;;;;;;;;;;;25.68;45.00;99210.47;4697056;30;20520;-80
2021/06/07 12:18:45;;;;;;;24.55;4.32;;;;;;;25.51;45.34;99212.28;4696952;30;19991;-76
2021/06/07 12:21:18;;;;;;;7.07;3.28;;;;;;;25.60;44.31;99188.59;4696845;30;20582;-77
2021/06/07 12:24:05;;;;;;;25.02;4.00;;;;;;;25.93;43.84;99198.22;4695663;30;20496;-77
2021/06/07 12:29:18;;;;;;;6.22;2.95;;;;;;;26.44;42.31;99190.69;4708730;30;20056;-78
2021/06/07 12:31:57;;;;;;;50.25;4.50;;;;;;;26.43;42.74;99187.09;4701004;30;20046;-80
2021/06/07 12:34:25;;;;;;;12.85;3.22;;;;;;;26.44;43.30;99183.06;4714337;30;20524;-83
2021/06/07 12:36:51;;;;;;;7.80;3.00;;;;;;;26.48;43.10;99177.44;4701327;30;20076;-80
2021/06/07 12:39:17;;;;;;;8.25;3.00;;;;;;;26.72;43.02;99175.44;4701399;30;20420;-81
2021/06/07 12:41:45;;;;;;;16.33;3.47;;;;;;;26.83;42.44;99164.88;4701426;30;20504;-81
2021/06/07 12:44:12;;;;;;;13.02;4.40;;;;;;;27.06;42.64;99169.66;4700186;30;20046;-76
2021/06/07 12:46:52;;;;;;;11.88;3.83;;;;;;;26.99;41.36;99171.78;4700758;30;20064;-76
2021/06/07 12:49:24;;;;;;;7.35;3.13;;;;;;;27.05;41.38;99173.69;4701268;30;20080;-82
2021/06/07 12:52:00;;;;;;;9.32;3.33;;;;;;;26.56;42.84;99169.72;4701241;30;20056;-77
2021/06/07 12:54:30;;;;;;;15.43;3.15;;;;;;;26.34;42.55;99170.03;4699703;30;20661;-79
2021/06/07 12:56:57;;;;;;;16.20;3.53;;;;;;;26.16;47.73;99183.50;4711869;30;20049;-78
2021/06/07 12:59:32;;;;;;;10.15;3.22;;;;;;;25.58;47.94;99188.22;4701147;30;20241;-75
2021/06/07 13:01:59;;;;;;;5.40;2.80;;;;;;;25.16;50.42;99190.25;4701110;30;20263;-76
2021/06/07 13:04:33;;;;;;;12.23;3.63;;;;;;;24.77;52.58;99200.56;4701208;30;20409;-76
2021/06/07 13:07:00;;;;;;;6.25;3.55;;;;;;;24.47;54.47;99205.97;4700740;30;20118;-76
2021/06/07 13:09:33;;;;;;;11.70;3.72;;;;;;;24.23;55.07;99197.31;4700768;30;20053;-78
2021/06/07 13:12:01;;;;;;;14.07;3.75;;;;;;;24.22;56.51;99208.91;4700490;30;20041;-76
2021/06/07 13:14:27;;;;;;;4.95;2.80;;;;;;;24.17;55.08;99214.91;4700993;30;20049;-76
2021/06/07 13:16:57;;;;;;;6.70;3.17;;;;;;;24.11;53.98;99209.75;4699704;30;20109;-78
2021/06/07 13:19:27;;;;;;;17.13;2.97;;;;;;;24.02;53.14;99209.41;4685473;30;20500;-79
2021/06/07 13:21:55;;;;;;;7.07;2.70;;;;;;;23.88;51.53;99215.84;4699339;30;20045;-79
2021/06/07 13:24:24;;;;;;;5.72;2.35;;;;;;;23.71;51.77;99199.97;4700389;30;20084;-79
2021/06/07 13:26:52;;;;;;;7.05;2.45;;;;;;;23.55;54.38;99202.41;4700760;30;20058;-79
2021/06/07 13:29:40;;;;;;;6.47;2.85;;;;;;;23.45;56.15;99199.22;4697964;30;20054;-79
2021/06/07 13:32:06;;;;;;;3.42;2.70;;;;;;;23.39;56.48;99200.03;4699569;30;20045;-85
2021/06/07 13:34:54;;;;;;;3.75;2.63;;;;;;;23.25;53.74;99186.94;4700108;30;20428;-86
2021/06/07 13:37:44;;;;;;;6.43;2.72;;;;;;;23.13;56.74;99182.56;4669509;30;20045;-79
2021/06/07 13:40:26;;;;;;;5.35;2.40;;;;;;;23.06;52.44;99190.16;4712130;30;20046;-79
2021/06/07 13:42:57;;;;;;;4.25;1.98;;;;;;;22.98;51.52;99197.72;4698342;30;20587;-79
2021/06/07 13:45:28;;;;;;;5.25;1.95;;;;;;;22.88;53.77;99199.28;4698924;30;20081;-79
2021/06/07 13:47:56;;;;;;;4.03;2.33;;;;;;;22.77;54.30;99192.91;4700168;30;20060;-79
2021/06/07 13:50:24;;;;;;;7.82;2.13;;;;;;;22.86;55.75;99195.31;4698993;30;20539;-79
2021/06/07 13:52:55;;;;;;;3.88;2.20;;;;;;;23.08;53.26;99201.69;4699507;30;20505;-78
2021/06/07 13:55:31;;;;;;;3.13;2.10;;;;;;;23.24;51.03;99185.31;4705483;30;20057;-79
2021/06/07 13:58:04;;;;;;;3.58;2.60;;;;;;;23.52;50.69;99212.38;4712843;30;20053;-79
2021/06/07 14:00:55;;;;;;;3.75;2.55;;;;;;;23.68;53.06;99211.94;4701358;30;20087;-78
2021/06/07 14:03:23;;;;;;;4.95;2.78;;;;;;;23.48;52.98;99210.75;4705217;30;20508;-79
2021/06/07 14:05:51;;;;;;;6.35;2.60;;;;;;;23.28;52.84;99211.22;4717394;30;20052;-78
2021/06/07 14:08:38;;;;;;;7.07;2.97;;;;;;;23.24;51.99;99209.63;4713596;30;20053;-82
2021/06/07 14:11:08;;;;;;;10.85;3.90;;;;;;;23.03;55.47;99196.53;4693314;30;20113;-78
2021/06/07 14:13:34;;;;;;;7.35;3.58;;;;;;;22.98;56.00;99206.88;4711264;30;20045;-78
2021/06/07 14:16:01;;;;;;;4.13;2.50;;;;;;;22.91;55.92;99203.25;4711761;30;20049;-79
2021/06/07 14:18:27;;;;;;;5.80;3.30;;;;;;;22.83;58.26;99202.47;4699901;30;20121;-79
2021/06/07 14:20:53;;;;;;;8.77;2.88;;;;;;;22.83;55.22;99202.47;4712776;30;20065;-75
2021/06/07 14:26:10;;;;;;;6.22;3.10;;;;;;;22.73;54.42;99203.25;4699075;30;20069;-74
2021/06/07 14:28:36;;;;;;;4.70;3.42;;;;;;;22.70;55.20;99185.34;4698260;30;20105;-76
2021/06/07 14:31:02;;;;;;;4.63;2.90;;;;;;;22.99;56.01;99202.09;4696852;30;20107;-77
2021/06/07 14:33:28;;;;;;;10.02;3.83;;;;;;;23.32;53.58;99189.69;4682162;30;20061;-79
2021/06/07 14:35:55;;;;;;;9.95;3.38;;;;;;;23.61;50.68;99184.84;4696965;30;20037;-74
2021/06/07 14:38:21;;;;;;;7.00;3.60;;;;;;;23.88;50.06;99181.56;4696261;30;20053;-75
2021/06/07 14:40:55;;;;;;;6.87;3.70;;;;;;;24.05;51.16;99186.25;4709452;30;20103;-75
2021/06/07 14:43:23;;;;;;;17.27;4.25;;;;;;;24.26;49.71;99178.94;4694672;30;20300;-74
2021/06/07 14:45:48;;;;;;;;;;;;;;;24.51;49.43;99176.03;4709638;30;20669;-74
2021/06/07 14:48:14;;;;;;;14.88;4.40;;;;;;;24.62;51.60;99173.94;4710830;30;19973;-75
2021/06/07 14:50:41;;;;;;;6.07;4.13;;;;;;;24.65;50.73;99163.94;4696817;30;20061;-75
2021/06/07 14:53:07;;;;;;;7.78;4.03;;;;;;;24.74;49.08;99161.47;4697371;30;20137;-75
2021/06/07 14:55:33;;;;;;;6.35;3.70;;;;;;;24.85;49.11;99159.38;4697988;30;20488;-75
2021/06/07 14:57:59;;;;;;;7.38;4.05;;;;;;;24.96;48.99;99162.84;4696927;30;20156;-75
2021/06/07 15:00:25;;;;;;;7.60;3.70;;;;;;;25.15;47.56;99157.91;4697760;30;20143;-75
2021/06/07 15:02:54;;;;;;;12.02;4.50;;;;;;;25.16;48.83;99160.28;4696045;30;20311;-78
2021/06/07 15:05:21;;;;;;;11.65;4.07;;;;;;;25.08;48.86;99139.16;4696227;30;20057;-79
2021/06/07 15:07:47;;;;;;;20.38;4.38;;;;;;;25.41;46.76;99156.44;4695414;30;20136;-81
2021/06/07 15:10:13;;;;;;;44.92;6.57;;;;;;;25.48;48.27;99156.34;4695465;30;20057;-78
2021/06/07 15:12:40;;;;;;;20.75;4.80;;;;;;;25.50;47.12;99154.72;4695530;30;20132;-87
2021/06/07 15:15:06;;;;;;;24.95;5.95;;;;;;;25.52;48.56;99148.69;4694522;30;20132;-83
2021/06/07 15:17:32;;;;;;;19.17;7.80;;;;;;;25.55;49.12;99145.06;4710196;30;20052;-79
2021/06/07 15:20:00;;;;;;;15.95;6.00;;;;;;;25.65;46.56;99149.72;4720021;30;20049;-78
2021/06/07 15:22:27;;;;;;;4.93;3.95;;;;;;;25.69;45.69;99152.47;4716240;30;20056;-79
2021/06/07 15:24:53;;;;;;;51.78;9.50;;;;;;;25.65;47.29;99143.34;4700499;30;20623;-79
2021/06/07 15:27:19;;;;;;;39.50;5.60;;;;;;;25.47;48.82;99138.75;4695597;30;20132;-81
2021/06/07 15:29:45;;;;;;;7.80;4.38;;;;;;;25.26;47.92;99139.00;4700132;30;20429;-71
2021/06/07 15:32:12;;;;;;;11.30;4.60;;;;;;;25.28;47.49;99144.97;4697433;30;20050;-73
2021/06/07 15:34:39;;;;;;;6.32;4.35;;;;;;;25.21;49.20;99136.66;4697410;30;20102;-73
2021/06/07 15:37:05;;;;;;;7.28;4.38;;;;;;;25.18;48.55;99143.88;4700257;30;20121;-72
2021/06/07 15:39:31;;;;;;;8.68;3.92;;;;;;;25.01;47.17;99153.22;4698189;30;20056;-79
2021/06/07 15:41:57;;;;;;;7.80;4.30;;;;;;;24.88;49.13;99161.34;4703993;30;20047;-79
2021/06/07 15:44:24;;;;;;;14.07;4.85;;;;;;;24.71;48.49;99159.50;4707595;30;20135;-78
2021/06/07 15:46:52;;;;;;;10.90;4.97;;;;;;;24.54;50.06;99153.63;4715780;30;20492;-79
2021/06/07 15:49:18;;;;;;;11.27;4.38;;;;;;;24.50;50.17;99155.69;4699589;30;20098;-77
2021/06/07 15:51:45;;;;;;;14.07;4.68;;;;;;;24.57;49.52;99158.41;4698184;30;20045;-77
2021/06/07 15:54:11;;;;;;;7.68;4.47;;;;;;;24.50;50.14;99164.06;4698701;30;20053;-80
2021/06/07 15:56:37;;;;;;;10.73;4.93;;;;;;;24.47;51.46;99166.84;4698240;30;20049;-78
2021/06/07 15:59:03;;;;;;;7.22;4.60;;;;;;;24.40;49.92;99173.25;4697887;30;20053;-79
2021/06/07 16:01:30;;;;;;;8.15;4.70;;;;;;;24.38;49.50;99181.28;4697207;30;20046;-78
2021/06/07 16:03:56;;;;;;;18.70;4.88;;;;;;;24.28;50.97;99171.75;4698369;30;20432;-79
2021/06/07 16:06:23;;;;;;;8.30;4.82;;;;;;;24.15;50.99;99174.22;4700496;30;20046;-86
2021/06/07 16:08:49;;;;;;;8.63;5.00;;;;;;;24.11;52.51;99172.66;4700046;30;20053;-87
2021/06/07 16:11:16;;;;;;;7.00;4.75;;;;;;;23.91;52.37;99153.63;4701352;30;20053;-78
2021/06/07 16:13:43;;;;;;;23.30;5.50;;;;;;;23.95;52.73;99173.16;4700362;30;20073;-82
2021/06/07 16:16:15;;;;;;;16.23;5.20;;;;;;;23.78;53.26;99162.88;4700672;30;20061;-77
2021/06/07 16:21:12;;;;;;;14.80;5.03;;;;;;;23.73;53.27;99180.81;4701902;30;20129;-80
2021/06/07 16:23:43;;;;;;;50.00;6.68;;;;;;;23.73;53.71;99188.41;4701576;30;20049;-79
2021/06/07 16:26:10;;;;;;;27.67;6.65;;;;;;;23.66;53.94;99189.97;4701487;30;20535;-75
2021/06/07 16:28:36;;;;;;;26.33;12.90;;;;;;;23.60;52.77;99193.59;4699845;30;20072;-74
2021/06/07 16:31:03;;;;;;;18.40;6.45;;;;;;;23.58;52.38;99190.44;4700791;30;20043;-82
2021/06/07 16:33:29;;;;;;;22.23;6.18;;;;;;;23.52;53.14;99190.03;4700096;30;20053;-74
2021/06/07 16:35:55;;;;;;;19.45;5.82;;;;;;;23.46;52.33;99194.44;4701625;30;20136;-76
2021/06/07 16:38:21;;;;;;;9.32;4.28;;;;;;;23.39;51.21;99183.31;4701229;30;20118;-83
2021/06/07 16:40:47;;;;;;;6.55;3.80;;;;;;;23.27;51.83;99180.94;4701073;30;20045;-77
2021/06/07 16:43:14;;;;;;;7.50;3.72;;;;;;;23.18;52.08;99179.38;4701503;30;20536;-78
2021/06/07 16:45:43;;;;;;;9.73;3.75;;;;;;;23.05;52.41;99171.84;4701382;30;20045;-81
2021/06/07 16:48:09;;;;;;;9.52;4.03;;;;;;;23.02;52.62;99183.78;4699474;30;20650;-81
2021/06/07 16:50:37;;;;;;;9.20;4.40;;;;;;;22.94;52.73;99189.34;4701296;30;20081;-75
2021/06/07 16:53:03;;;;;;;10.68;4.07;;;;;;;22.75;53.87;99171.03;4700848;30;20111;-80
2021/06/07 16:55:29;;;;;;;11.02;4.32;;;;;;;22.76;55.03;99174.59;4701101;30;20057;-80
2021/06/07 16:57:55;;;;;;;7.70;3.70;;;;;;;22.68;53.90;99176.59;4700752;30;20421;-74
2021/06/07 17:00:25;;;;;;;7.90;4.18;;;;;;;22.57;52.85;99175.00;4701085;30;20053;-75
2021/06/07 17:02:52;;;;;;;11.80;5.32;;;;;;;22.46;53.62;99178.56;4700820;30;20052;-81
2021/06/07 17:05:18;;;;;;;37.67;7.93;;;;;;;22.37;53.92;99177.38;4701047;30;20145;-80
2021/06/07 17:07:44;;;;;;;31.95;6.75;;;;;;;22.26;53.70;99164.22;4700969;30;20057;-81
2021/06/07 17:10:13;;;;;;;30.98;6.15;;;;;;;22.21;54.58;99177.72;4700693;30;20049;-77
2021/06/07 17:12:50;;;;;;;32.53;5.97;;;;;;;22.16;54.89;99178.13;4699106;30;20468;-81